sensor_id;sensor_type;location;lat;lon;timestamp;temperature;humidity
421;DHT22;23959;49.046;8.468;2022-09-09T00:04:03;16.30;99.60
421;DHT22;23959;49.046;8.468;2022-09-09T00:09:18;16.10;99.60
421;DHT22;23959;49.046;8.468;2022-09-09T00:12:14;16.20;99.60
421;DHT22;23959;49.046;8.468;2022-09-09T00:14:48;16.10;99.60
421;DHT22;23959;49.046;8.468;2022-09-09T00:17:31;16.10;99.60
421;DHT22;23959;49.046;8.468;2022-09-09T00:20:05;16.20;99.60
421;DHT22;23959;49.046;8.468;2022-09-09T00:23:05;16.20;99.60
421;DHT22;23959;49.046;8.468;2022-09-09T00:25:34;16.20;99.60
421;DHT22;23959;49.046;8.468;2022-09-09T00:28:13;16.20;99.60
421;DHT22;23959;49.046;8.468;2022-09-09T00:30:43;16.20;99.60
421;DHT22;23959;49.046;8.468;2022-09-09T00:33:12;16.30;99.60
421;DHT22;23959;49.046;8.468;2022-09-09T00:36:00;16.20;99.60
421;DHT22;23959;49.046;8.468;2022-09-09T00:38:35;16.10;99.60
421;DHT22;23959;49.046;8.468;2022-09-09T00:44:31;16.30;99.60
421;DHT22;23959;49.046;8.468;2022-09-09T00:47:33;16.40;99.60
421;DHT22;23959;49.046;8.468;2022-09-09T00:52:59;16.30;99.60
421;DHT22;23959;49.046;8.468;2022-09-09T00:58:21;16.40;99.60
421;DHT22;23959;49.046;8.468;2022-09-09T01:03:55;16.40;99.60
421;DHT22;23959;49.046;8.468;2022-09-09T01:06:33;16.40;99.60
421;DHT22;23959;49.046;8.468;2022-09-09T01:14:29;16.50;99.60
421;DHT22;23959;49.046;8.468;2022-09-09T01:17:46;16.50;99.60
421;DHT22;23959;49.046;8.468;2022-09-09T01:20:17;16.60;99.60
421;DHT22;23959;49.046;8.468;2022-09-09T01:28:46;16.80;99.60
421;DHT22;23959;49.046;8.468;2022-09-09T01:31:18;16.80;99.60
421;DHT22;23959;49.046;8.468;2022-09-09T01:33:46;16.80;99.60
421;DHT22;23959;49.046;8.468;2022-09-09T01:36:37;16.90;99.60
421;DHT22;23959;49.046;8.468;2022-09-09T01:39:05;17.10;99.60
421;DHT22;23959;49.046;8.468;2022-09-09T01:41:33;17.10;99.60
421;DHT22;23959;49.046;8.468;2022-09-09T01:44:01;17.00;99.60
421;DHT22;23959;49.046;8.468;2022-09-09T01:46:30;16.90;99.60
421;DHT22;23959;49.046;8.468;2022-09-09T01:48:58;16.70;99.60
421;DHT22;23959;49.046;8.468;2022-09-09T01:51:26;16.50;99.60
421;DHT22;23959;49.046;8.468;2022-09-09T01:53:53;16.30;99.60
421;DHT22;23959;49.046;8.468;2022-09-09T01:59:34;16.10;99.60
421;DHT22;23959;49.046;8.468;2022-09-09T02:02:10;16.00;99.60
421;DHT22;23959;49.046;8.468;2022-09-09T02:04:43;15.90;99.60
421;DHT22;23959;49.046;8.468;2022-09-09T02:10:19;15.80;99.60
421;DHT22;23959;49.046;8.468;2022-09-09T02:13:11;15.80;99.60
421;DHT22;23959;49.046;8.468;2022-09-09T02:18:40;15.70;99.60
421;DHT22;23959;49.046;8.468;2022-09-09T02:21:08;15.70;99.60
421;DHT22;23959;49.046;8.468;2022-09-09T02:23:40;15.70;99.60
421;DHT22;23959;49.046;8.468;2022-09-09T02:26:08;15.70;99.60
421;DHT22;23959;49.046;8.468;2022-09-09T02:28:39;15.80;99.60
421;DHT22;23959;49.046;8.468;2022-09-09T02:31:07;15.70;99.60
421;DHT22;23959;49.046;8.468;2022-09-09T02:33:42;15.80;99.60
421;DHT22;23959;49.046;8.468;2022-09-09T02:36:10;15.70;99.60
421;DHT22;23959;49.046;8.468;2022-09-09T02:38:45;15.70;99.60
421;DHT22;23959;49.046;8.468;2022-09-09T02:41:12;15.70;99.60
421;DHT22;23959;49.046;8.468;2022-09-09T02:43:41;15.70;99.60
421;DHT22;23959;49.046;8.468;2022-09-09T02:49:03;15.70;99.60
421;DHT22;23959;49.046;8.468;2022-09-09T02:52:01;15.60;99.60
421;DHT22;23959;49.046;8.468;2022-09-09T02:54:31;15.70;99.60
421;DHT22;23959;49.046;8.468;2022-09-09T02:57:11;15.70;99.60
421;DHT22;23959;49.046;8.468;2022-09-09T02:59:39;15.60;99.60
421;DHT22;23959;49.046;8.468;2022-09-09T03:02:11;15.70;99.60
421;DHT22;23959;49.046;8.468;2022-09-09T03:04:39;15.70;99.60
421;DHT22;23959;49.046;8.468;2022-09-09T03:07:08;15.80;99.60
421;DHT22;23959;49.046;8.468;2022-09-09T03:09:40;15.80;99.60
421;DHT22;23959;49.046;8.468;2022-09-09T03:12:07;15.80;99.60
421;DHT22;23959;49.046;8.468;2022-09-09T03:14:35;15.80;99.60
421;DHT22;23959;49.046;8.468;2022-09-09T03:17:02;15.80;99.60
421;DHT22;23959;49.046;8.468;2022-09-09T03:19:30;15.80;99.60
421;DHT22;23959;49.046;8.468;2022-09-09T03:21:58;15.70;99.60
421;DHT22;23959;49.046;8.468;2022-09-09T03:24:25;15.70;99.60
421;DHT22;23959;49.046;8.468;2022-09-09T03:26:53;15.60;99.60
421;DHT22;23959;49.046;8.468;2022-09-09T03:29:22;15.50;99.60
421;DHT22;23959;49.046;8.468;2022-09-09T03:31:50;15.40;99.60
421;DHT22;23959;49.046;8.468;2022-09-09T03:34:17;15.40;99.60
421;DHT22;23959;49.046;8.468;2022-09-09T03:36:45;15.40;99.60
421;DHT22;23959;49.046;8.468;2022-09-09T03:39:15;15.40;99.60
421;DHT22;23959;49.046;8.468;2022-09-09T03:41:43;15.40;99.60
421;DHT22;23959;49.046;8.468;2022-09-09T03:44:12;15.40;99.60
421;DHT22;23959;49.046;8.468;2022-09-09T03:46:39;15.50;99.60
421;DHT22;23959;49.046;8.468;2022-09-09T03:49:06;15.50;99.60
421;DHT22;23959;49.046;8.468;2022-09-09T03:51:34;15.50;99.60
421;DHT22;23959;49.046;8.468;2022-09-09T03:54:03;15.50;99.60
421;DHT22;23959;49.046;8.468;2022-09-09T03:56:32;15.40;99.60
421;DHT22;23959;49.046;8.468;2022-09-09T03:59:00;15.40;99.60
421;DHT22;23959;49.046;8.468;2022-09-09T04:01:32;15.40;99.60
421;DHT22;23959;49.046;8.468;2022-09-09T04:03:59;15.40;99.60
421;DHT22;23959;49.046;8.468;2022-09-09T04:06:29;15.30;99.60
421;DHT22;23959;49.046;8.468;2022-09-09T04:08:58;15.30;99.60
421;DHT22;23959;49.046;8.468;2022-09-09T04:11:25;15.20;99.60
421;DHT22;23959;49.046;8.468;2022-09-09T04:13:54;15.20;99.60
421;DHT22;23959;49.046;8.468;2022-09-09T04:16:22;15.30;99.60
421;DHT22;23959;49.046;8.468;2022-09-09T04:18:51;15.40;99.60
421;DHT22;23959;49.046;8.468;2022-09-09T04:21:19;15.30;99.60
421;DHT22;23959;49.046;8.468;2022-09-09T04:23:49;15.30;99.60
421;DHT22;23959;49.046;8.468;2022-09-09T04:26:18;15.40;99.60
421;DHT22;23959;49.046;8.468;2022-09-09T04:28:46;15.70;99.60
421;DHT22;23959;49.046;8.468;2022-09-09T04:31:18;15.90;99.60
421;DHT22;23959;49.046;8.468;2022-09-09T04:33:46;16.00;99.60
421;DHT22;23959;49.046;8.468;2022-09-09T04:36:14;16.00;99.60
421;DHT22;23959;49.046;8.468;2022-09-09T04:38:40;15.90;99.60
421;DHT22;23959;49.046;8.468;2022-09-09T04:41:09;15.80;99.60
421;DHT22;23959;49.046;8.468;2022-09-09T04:43:38;15.80;99.60
421;DHT22;23959;49.046;8.468;2022-09-09T04:46:06;15.80;99.60
421;DHT22;23959;49.046;8.468;2022-09-09T04:48:33;15.80;99.60
421;DHT22;23959;49.046;8.468;2022-09-09T04:51:08;15.80;99.60
421;DHT22;23959;49.046;8.468;2022-09-09T04:53:35;15.90;99.60
421;DHT22;23959;49.046;8.468;2022-09-09T04:56:11;15.80;99.60
421;DHT22;23959;49.046;8.468;2022-09-09T04:58:39;16.00;99.60
421;DHT22;23959;49.046;8.468;2022-09-09T05:01:17;16.10;99.60
421;DHT22;23959;49.046;8.468;2022-09-09T05:03:44;16.10;99.60
421;DHT22;23959;49.046;8.468;2022-09-09T05:06:16;16.20;99.60
421;DHT22;23959;49.046;8.468;2022-09-09T05:08:44;16.20;99.60
421;DHT22;23959;49.046;8.468;2022-09-09T05:11:18;16.30;99.60
421;DHT22;23959;49.046;8.468;2022-09-09T05:13:45;16.40;99.60
421;DHT22;23959;49.046;8.468;2022-09-09T05:16:14;16.30;99.60
421;DHT22;23959;49.046;8.468;2022-09-09T05:18:42;16.40;99.60
421;DHT22;23959;49.046;8.468;2022-09-09T05:21:12;16.50;99.60
421;DHT22;23959;49.046;8.468;2022-09-09T05:23:39;16.70;99.60
421;DHT22;23959;49.046;8.468;2022-09-09T05:26:11;16.70;99.60
421;DHT22;23959;49.046;8.468;2022-09-09T05:28:39;16.60;99.60
421;DHT22;23959;49.046;8.468;2022-09-09T05:31:08;16.70;99.60
421;DHT22;23959;49.046;8.468;2022-09-09T05:33:36;16.60;99.60
421;DHT22;23959;49.046;8.468;2022-09-09T05:36:08;16.60;99.60
421;DHT22;23959;49.046;8.468;2022-09-09T05:38:35;16.50;99.60
421;DHT22;23959;49.046;8.468;2022-09-09T05:41:02;16.70;99.60
421;DHT22;23959;49.046;8.468;2022-09-09T05:43:29;16.70;99.60
421;DHT22;23959;49.046;8.468;2022-09-09T05:46:07;16.70;99.60
421;DHT22;23959;49.046;8.468;2022-09-09T05:48:37;16.60;99.60
421;DHT22;23959;49.046;8.468;2022-09-09T05:51:08;16.50;99.60
421;DHT22;23959;49.046;8.468;2022-09-09T05:53:34;16.50;99.60
421;DHT22;23959;49.046;8.468;2022-09-09T05:56:05;16.60;99.60
421;DHT22;23959;49.046;8.468;2022-09-09T05:58:32;16.60;99.60
421;DHT22;23959;49.046;8.468;2022-09-09T06:01:12;16.70;99.60
421;DHT22;23959;49.046;8.468;2022-09-09T06:03:40;16.80;99.60
421;DHT22;23959;49.046;8.468;2022-09-09T06:06:10;17.00;99.60
421;DHT22;23959;49.046;8.468;2022-09-09T06:08:38;17.10;99.60
421;DHT22;23959;49.046;8.468;2022-09-09T06:11:07;17.30;99.60
421;DHT22;23959;49.046;8.468;2022-09-09T06:13:34;17.50;99.60
421;DHT22;23959;49.046;8.468;2022-09-09T06:16:01;17.60;99.60
421;DHT22;23959;49.046;8.468;2022-09-09T06:18:33;17.80;99.60
421;DHT22;23959;49.046;8.468;2022-09-09T06:21:04;17.90;99.60
421;DHT22;23959;49.046;8.468;2022-09-09T06:23:33;17.80;99.60
421;DHT22;23959;49.046;8.468;2022-09-09T06:26:06;17.80;99.60
421;DHT22;23959;49.046;8.468;2022-09-09T06:28:33;17.80;99.60
421;DHT22;23959;49.046;8.468;2022-09-09T06:31:07;17.90;99.60
421;DHT22;23959;49.046;8.468;2022-09-09T06:33:36;17.90;99.60
421;DHT22;23959;49.046;8.468;2022-09-09T06:36:05;18.00;99.60
421;DHT22;23959;49.046;8.468;2022-09-09T06:38:32;18.00;99.60
421;DHT22;23959;49.046;8.468;2022-09-09T06:40:59;18.00;99.60
421;DHT22;23959;49.046;8.468;2022-09-09T06:43:26;18.10;99.60
421;DHT22;23959;49.046;8.468;2022-09-09T06:46:10;18.20;99.60
421;DHT22;23959;49.046;8.468;2022-09-09T06:48:38;18.30;99.60
421;DHT22;23959;49.046;8.468;2022-09-09T06:51:18;18.40;99.60
421;DHT22;23959;49.046;8.468;2022-09-09T06:53:46;18.40;99.60
421;DHT22;23959;49.046;8.468;2022-09-09T06:58:43;18.50;99.60
421;DHT22;23959;49.046;8.468;2022-09-09T07:01:12;18.70;99.60
421;DHT22;23959;49.046;8.468;2022-09-09T07:03:39;18.70;99.60
421;DHT22;23959;49.046;8.468;2022-09-09T07:06:07;18.70;99.60
421;DHT22;23959;49.046;8.468;2022-09-09T07:08:35;18.80;99.60
421;DHT22;23959;49.046;8.468;2022-09-09T07:11:06;18.80;99.60
421;DHT22;23959;49.046;8.468;2022-09-09T07:13:34;18.90;99.60
421;DHT22;23959;49.046;8.468;2022-09-09T07:16:08;19.00;99.60
421;DHT22;23959;49.046;8.468;2022-09-09T07:18:35;19.00;99.60
421;DHT22;23959;49.046;8.468;2022-09-09T07:21:02;19.00;99.60
421;DHT22;23959;49.046;8.468;2022-09-09T07:23:32;19.10;99.60
421;DHT22;23959;49.046;8.468;2022-09-09T07:25:59;19.10;99.60
421;DHT22;23959;49.046;8.468;2022-09-09T07:28:26;19.20;99.60
421;DHT22;23959;49.046;8.468;2022-09-09T07:33:22;19.50;99.60
421;DHT22;23959;49.046;8.468;2022-09-09T07:35:50;19.30;99.60
421;DHT22;23959;49.046;8.468;2022-09-09T07:38:17;18.90;99.60
421;DHT22;23959;49.046;8.468;2022-09-09T07:40:45;18.60;99.60
421;DHT22;23959;49.046;8.468;2022-09-09T07:43:12;18.40;99.60
421;DHT22;23959;49.046;8.468;2022-09-09T07:45:40;18.30;99.60
421;DHT22;23959;49.046;8.468;2022-09-09T07:48:09;18.40;99.60
421;DHT22;23959;49.046;8.468;2022-09-09T07:50:37;18.40;99.60
421;DHT22;23959;49.046;8.468;2022-09-09T07:53:06;18.40;99.60
421;DHT22;23959;49.046;8.468;2022-09-09T07:55:33;18.40;99.60
421;DHT22;23959;49.046;8.468;2022-09-09T07:58:01;18.60;99.60
421;DHT22;23959;49.046;8.468;2022-09-09T08:00:28;18.70;99.60
421;DHT22;23959;49.046;8.468;2022-09-09T08:02:56;18.70;99.60
421;DHT22;23959;49.046;8.468;2022-09-09T08:05:23;18.80;99.60
421;DHT22;23959;49.046;8.468;2022-09-09T08:07:51;19.00;99.60
421;DHT22;23959;49.046;8.468;2022-09-09T08:10:18;19.40;99.60
421;DHT22;23959;49.046;8.468;2022-09-09T08:12:46;19.60;99.60
421;DHT22;23959;49.046;8.468;2022-09-09T08:15:14;19.80;99.60
421;DHT22;23959;49.046;8.468;2022-09-09T08:17:42;19.90;99.60
421;DHT22;23959;49.046;8.468;2022-09-09T08:20:10;19.80;99.60
421;DHT22;23959;49.046;8.468;2022-09-09T08:22:38;19.80;99.60
421;DHT22;23959;49.046;8.468;2022-09-09T08:25:06;20.00;99.60
421;DHT22;23959;49.046;8.468;2022-09-09T08:27:36;20.30;99.60
421;DHT22;23959;49.046;8.468;2022-09-09T08:30:09;20.50;99.60
421;DHT22;23959;49.046;8.468;2022-09-09T08:32:37;20.70;99.60
421;DHT22;23959;49.046;8.468;2022-09-09T08:35:06;20.70;99.60
421;DHT22;23959;49.046;8.468;2022-09-09T08:37:34;20.60;99.60
421;DHT22;23959;49.046;8.468;2022-09-09T08:40:03;20.00;99.60
421;DHT22;23959;49.046;8.468;2022-09-09T08:42:35;19.70;99.60
421;DHT22;23959;49.046;8.468;2022-09-09T08:50:36;19.30;99.60
421;DHT22;23959;49.046;8.468;2022-09-09T08:53:28;19.30;99.60
421;DHT22;23959;49.046;8.468;2022-09-09T08:56:22;19.50;99.60
421;DHT22;23959;49.046;8.468;2022-09-09T08:58:55;19.90;99.60
421;DHT22;23959;49.046;8.468;2022-09-09T09:12:29;19.10;99.60
421;DHT22;23959;49.046;8.468;2022-09-09T09:14:57;18.70;99.60
421;DHT22;23959;49.046;8.468;2022-09-09T09:17:27;18.60;99.60
421;DHT22;23959;49.046;8.468;2022-09-09T09:19:57;18.70;99.60
421;DHT22;23959;49.046;8.468;2022-09-09T09:22:39;18.70;99.60
421;DHT22;23959;49.046;8.468;2022-09-09T09:25:22;18.80;99.60
421;DHT22;23959;49.046;8.468;2022-09-09T09:28:02;18.90;99.60
421;DHT22;23959;49.046;8.468;2022-09-09T09:30:39;19.20;99.60
421;DHT22;23959;49.046;8.468;2022-09-09T09:33:46;19.30;99.60
421;DHT22;23959;49.046;8.468;2022-09-09T09:36:13;19.20;99.60
421;DHT22;23959;49.046;8.468;2022-09-09T09:38:58;19.20;99.60
421;DHT22;23959;49.046;8.468;2022-09-09T09:43:57;19.60;99.60
421;DHT22;23959;49.046;8.468;2022-09-09T09:46:26;20.20;99.60
421;DHT22;23959;49.046;8.468;2022-09-09T09:49:00;20.30;99.60
421;DHT22;23959;49.046;8.468;2022-09-09T09:51:30;20.50;99.60
421;DHT22;23959;49.046;8.468;2022-09-09T09:54:14;20.30;99.60
421;DHT22;23959;49.046;8.468;2022-09-09T09:56:45;20.30;99.60
421;DHT22;23959;49.046;8.468;2022-09-09T09:59:22;20.60;99.60
421;DHT22;23959;49.046;8.468;2022-09-09T10:01:49;21.00;99.60
421;DHT22;23959;49.046;8.468;2022-09-09T10:04:19;21.20;99.60
421;DHT22;23959;49.046;8.468;2022-09-09T10:06:47;20.90;99.60
421;DHT22;23959;49.046;8.468;2022-09-09T10:09:30;21.00;99.60
421;DHT22;23959;49.046;8.468;2022-09-09T10:17:41;21.00;99.60
421;DHT22;23959;49.046;8.468;2022-09-09T10:26:35;21.10;99.60
421;DHT22;23959;49.046;8.468;2022-09-09T10:35:12;21.50;99.60
421;DHT22;23959;49.046;8.468;2022-09-09T10:38:39;21.50;99.60
421;DHT22;23959;49.046;8.468;2022-09-09T10:46:34;21.70;99.60
421;DHT22;23959;49.046;8.468;2022-09-09T10:55:16;21.40;99.60
421;DHT22;23959;49.046;8.468;2022-09-09T10:57:52;21.30;99.60
421;DHT22;23959;49.046;8.468;2022-09-09T11:00:25;21.70;99.60
421;DHT22;23959;49.046;8.468;2022-09-09T11:03:00;22.00;99.60
421;DHT22;23959;49.046;8.468;2022-09-09T11:08:17;22.10;99.60
421;DHT22;23959;49.046;8.468;2022-09-09T11:19:04;22.70;99.60
421;DHT22;23959;49.046;8.468;2022-09-09T11:21:39;22.90;99.60
421;DHT22;23959;49.046;8.468;2022-09-09T11:24:15;22.70;99.60
421;DHT22;23959;49.046;8.468;2022-09-09T11:26:47;22.70;99.60
421;DHT22;23959;49.046;8.468;2022-09-09T11:35:27;22.00;99.60
421;DHT22;23959;49.046;8.468;2022-09-09T11:38:26;23.30;99.60
421;DHT22;23959;49.046;8.468;2022-09-09T11:41:05;23.70;99.60
421;DHT22;23959;49.046;8.468;2022-09-09T11:43:46;23.10;99.60
421;DHT22;23959;49.046;8.468;2022-09-09T11:46:34;23.80;99.60
421;DHT22;23959;49.046;8.468;2022-09-09T11:49:05;23.90;99.60
421;DHT22;23959;49.046;8.468;2022-09-09T11:51:34;25.00;99.60
421;DHT22;23959;49.046;8.468;2022-09-09T11:54:29;25.30;99.60
421;DHT22;23959;49.046;8.468;2022-09-09T11:56:53;25.50;99.60
421;DHT22;23959;49.046;8.468;2022-09-09T11:59:29;25.70;99.60
421;DHT22;23959;49.046;8.468;2022-09-09T12:04:37;24.20;99.60
421;DHT22;23959;49.046;8.468;2022-09-09T12:09:58;24.40;99.60
421;DHT22;23959;49.046;8.468;2022-09-09T12:12:36;25.00;99.60
421;DHT22;23959;49.046;8.468;2022-09-09T12:17:45;25.00;99.60
421;DHT22;23959;49.046;8.468;2022-09-09T12:20:18;24.70;99.60
421;DHT22;23959;49.046;8.468;2022-09-09T12:28:10;25.80;99.60
421;DHT22;23959;49.046;8.468;2022-09-09T12:31:14;23.80;99.60
421;DHT22;23959;49.046;8.468;2022-09-09T12:33:46;23.40;99.60
421;DHT22;23959;49.046;8.468;2022-09-09T12:36:19;23.40;99.60
421;DHT22;23959;49.046;8.468;2022-09-09T12:39:29;23.60;99.60
421;DHT22;23959;49.046;8.468;2022-09-09T12:42:03;23.50;99.60
421;DHT22;23959;49.046;8.468;2022-09-09T12:44:32;23.00;99.60
421;DHT22;23959;49.046;8.468;2022-09-09T12:47:03;22.80;99.60
421;DHT22;23959;49.046;8.468;2022-09-09T12:49:36;22.90;99.60
421;DHT22;23959;49.046;8.468;2022-09-09T12:52:32;22.70;99.60
421;DHT22;23959;49.046;8.468;2022-09-09T12:55:05;22.70;99.60
421;DHT22;23959;49.046;8.468;2022-09-09T12:57:37;22.20;99.60
421;DHT22;23959;49.046;8.468;2022-09-09T13:00:16;21.40;99.60
421;DHT22;23959;49.046;8.468;2022-09-09T13:02:54;21.00;99.60
421;DHT22;23959;49.046;8.468;2022-09-09T13:08:17;23.60;99.60
421;DHT22;23959;49.046;8.468;2022-09-09T13:10:52;23.20;99.60
421;DHT22;23959;49.046;8.468;2022-09-09T13:13:34;22.60;99.60
421;DHT22;23959;49.046;8.468;2022-09-09T13:16:03;22.00;99.60
421;DHT22;23959;49.046;8.468;2022-09-09T13:18:39;21.40;99.60
421;DHT22;23959;49.046;8.468;2022-09-09T13:21:08;21.00;99.60
421;DHT22;23959;49.046;8.468;2022-09-09T13:23:37;20.90;99.60
421;DHT22;23959;49.046;8.468;2022-09-09T13:26:06;20.40;99.60
421;DHT22;23959;49.046;8.468;2022-09-09T13:28:47;20.50;99.60
421;DHT22;23959;49.046;8.468;2022-09-09T13:31:35;20.70;99.60
421;DHT22;23959;49.046;8.468;2022-09-09T13:36:59;23.80;99.60
421;DHT22;23959;49.046;8.468;2022-09-09T13:39:36;25.20;99.60
421;DHT22;23959;49.046;8.468;2022-09-09T13:42:03;26.30;99.60
421;DHT22;23959;49.046;8.468;2022-09-09T13:44:40;27.30;99.60
421;DHT22;23959;49.046;8.468;2022-09-09T13:49:49;28.20;99.60
421;DHT22;23959;49.046;8.468;2022-09-09T13:52:18;28.40;99.60
421;DHT22;23959;49.046;8.468;2022-09-09T13:54:50;27.30;99.60
421;DHT22;23959;49.046;8.468;2022-09-09T13:57:22;25.30;99.60
421;DHT22;23959;49.046;8.468;2022-09-09T13:59:49;24.00;99.60
421;DHT22;23959;49.046;8.468;2022-09-09T14:02:16;24.20;99.60
421;DHT22;23959;49.046;8.468;2022-09-09T14:04:44;24.20;99.60
421;DHT22;23959;49.046;8.468;2022-09-09T14:07:15;24.20;99.60
421;DHT22;23959;49.046;8.468;2022-09-09T14:09:44;23.80;99.60
421;DHT22;23959;49.046;8.468;2022-09-09T14:12:16;22.90;99.60
421;DHT22;23959;49.046;8.468;2022-09-09T14:14:45;22.80;99.60
421;DHT22;23959;49.046;8.468;2022-09-09T14:17:13;22.30;99.60
421;DHT22;23959;49.046;8.468;2022-09-09T14:19:40;21.90;99.60
421;DHT22;23959;49.046;8.468;2022-09-09T14:22:07;21.50;99.60
421;DHT22;23959;49.046;8.468;2022-09-09T14:24:34;19.50;99.60
421;DHT22;23959;49.046;8.468;2022-09-09T14:27:00;19.30;99.60
421;DHT22;23959;49.046;8.468;2022-09-09T14:29:28;18.60;99.60
421;DHT22;23959;49.046;8.468;2022-09-09T14:31:56;18.60;99.60
421;DHT22;23959;49.046;8.468;2022-09-09T14:34:26;18.20;83.10
421;DHT22;23959;49.046;8.468;2022-09-09T14:36:57;18.00;77.70
421;DHT22;23959;49.046;8.468;2022-09-09T14:39:24;18.10;74.80
421;DHT22;23959;49.046;8.468;2022-09-09T14:41:51;18.00;71.10
421;DHT22;23959;49.046;8.468;2022-09-09T14:44:18;17.50;72.70
421;DHT22;23959;49.046;8.468;2022-09-09T14:46:46;17.50;99.60
421;DHT22;23959;49.046;8.468;2022-09-09T14:49:14;17.50;99.60
421;DHT22;23959;49.046;8.468;2022-09-09T14:51:42;17.50;99.60
421;DHT22;23959;49.046;8.468;2022-09-09T14:54:10;17.60;99.60
421;DHT22;23959;49.046;8.468;2022-09-09T14:56:37;17.40;99.60
421;DHT22;23959;49.046;8.468;2022-09-09T14:59:05;17.60;99.60
421;DHT22;23959;49.046;8.468;2022-09-09T15:01:32;17.40;99.60
421;DHT22;23959;49.046;8.468;2022-09-09T15:04:03;17.20;99.60
421;DHT22;23959;49.046;8.468;2022-09-09T15:06:32;17.10;99.60
421;DHT22;23959;49.046;8.468;2022-09-09T15:09:04;17.10;99.60
421;DHT22;23959;49.046;8.468;2022-09-09T15:11:35;17.20;99.60
421;DHT22;23959;49.046;8.468;2022-09-09T15:14:08;17.40;99.60
421;DHT22;23959;49.046;8.468;2022-09-09T15:16:37;17.60;99.60
421;DHT22;23959;49.046;8.468;2022-09-09T15:19:07;17.90;99.60
421;DHT22;23959;49.046;8.468;2022-09-09T15:21:36;18.00;99.60
421;DHT22;23959;49.046;8.468;2022-09-09T15:24:05;18.20;99.60
421;DHT22;23959;49.046;8.468;2022-09-09T15:26:34;18.30;99.60
421;DHT22;23959;49.046;8.468;2022-09-09T15:29:03;18.60;99.60
421;DHT22;23959;49.046;8.468;2022-09-09T15:31:31;19.00;99.60
421;DHT22;23959;49.046;8.468;2022-09-09T15:34:03;19.10;99.60
421;DHT22;23959;49.046;8.468;2022-09-09T15:38:59;19.30;99.60
421;DHT22;23959;49.046;8.468;2022-09-09T15:41:26;19.30;99.60
421;DHT22;23959;49.046;8.468;2022-09-09T15:43:56;19.40;99.60
421;DHT22;23959;49.046;8.468;2022-09-09T15:48:55;19.50;99.60
421;DHT22;23959;49.046;8.468;2022-09-09T15:51:23;19.30;99.60
421;DHT22;23959;49.046;8.468;2022-09-09T15:53:58;19.50;99.60
421;DHT22;23959;49.046;8.468;2022-09-09T15:56:27;19.40;99.60
421;DHT22;23959;49.046;8.468;2022-09-09T15:58:56;19.40;99.60
421;DHT22;23959;49.046;8.468;2022-09-09T16:01:24;19.30;99.60
421;DHT22;23959;49.046;8.468;2022-09-09T16:03:52;19.20;99.60
421;DHT22;23959;49.046;8.468;2022-09-09T16:06:22;19.00;99.60
421;DHT22;23959;49.046;8.468;2022-09-09T16:08:51;18.90;99.60
421;DHT22;23959;49.046;8.468;2022-09-09T16:11:38;18.80;99.60
421;DHT22;23959;49.046;8.468;2022-09-09T16:14:09;18.60;99.60
421;DHT22;23959;49.046;8.468;2022-09-09T16:16:37;18.60;99.60
421;DHT22;23959;49.046;8.468;2022-09-09T16:19:10;18.50;99.60
421;DHT22;23959;49.046;8.468;2022-09-09T16:21:40;18.50;99.60
421;DHT22;23959;49.046;8.468;2022-09-09T16:24:09;18.40;99.60
421;DHT22;23959;49.046;8.468;2022-09-09T16:26:38;18.30;99.60
421;DHT22;23959;49.046;8.468;2022-09-09T16:29:06;18.30;99.60
421;DHT22;23959;49.046;8.468;2022-09-09T16:31:33;18.20;99.60
421;DHT22;23959;49.046;8.468;2022-09-09T16:34:00;18.10;99.60
421;DHT22;23959;49.046;8.468;2022-09-09T16:36:31;18.00;99.60
421;DHT22;23959;49.046;8.468;2022-09-09T16:39:05;17.90;99.60
421;DHT22;23959;49.046;8.468;2022-09-09T16:41:37;17.80;99.60
421;DHT22;23959;49.046;8.468;2022-09-09T16:44:06;17.80;99.60
421;DHT22;23959;49.046;8.468;2022-09-09T16:46:41;17.70;99.60
421;DHT22;23959;49.046;8.468;2022-09-09T16:49:12;17.20;99.60
421;DHT22;23959;49.046;8.468;2022-09-09T16:51:49;16.90;99.60
421;DHT22;23959;49.046;8.468;2022-09-09T16:54:20;16.50;99.60
421;DHT22;23959;49.046;8.468;2022-09-09T16:56:48;16.50;99.60
421;DHT22;23959;49.046;8.468;2022-09-09T16:59:18;16.40;99.60
421;DHT22;23959;49.046;8.468;2022-09-09T17:01:48;16.50;99.60
421;DHT22;23959;49.046;8.468;2022-09-09T17:04:21;16.50;99.60
421;DHT22;23959;49.046;8.468;2022-09-09T17:06:51;16.50;99.60
421;DHT22;23959;49.046;8.468;2022-09-09T17:09:19;16.70;99.60
421;DHT22;23959;49.046;8.468;2022-09-09T17:11:47;16.90;99.60
421;DHT22;23959;49.046;8.468;2022-09-09T17:14:19;17.10;99.60
421;DHT22;23959;49.046;8.468;2022-09-09T17:16:46;17.10;99.60
421;DHT22;23959;49.046;8.468;2022-09-09T17:19:13;17.10;99.60
421;DHT22;23959;49.046;8.468;2022-09-09T17:21:41;17.10;99.60
421;DHT22;23959;49.046;8.468;2022-09-09T17:24:08;17.10;99.60
421;DHT22;23959;49.046;8.468;2022-09-09T17:26:35;17.10;99.60
421;DHT22;23959;49.046;8.468;2022-09-09T17:29:04;17.00;99.60
421;DHT22;23959;49.046;8.468;2022-09-09T17:31:32;17.00;99.60
421;DHT22;23959;49.046;8.468;2022-09-09T17:34:00;16.90;99.60
421;DHT22;23959;49.046;8.468;2022-09-09T17:36:33;16.90;99.60
421;DHT22;23959;49.046;8.468;2022-09-09T17:39:02;16.90;99.60
421;DHT22;23959;49.046;8.468;2022-09-09T17:41:35;16.90;99.60
421;DHT22;23959;49.046;8.468;2022-09-09T17:44:02;16.90;99.60
421;DHT22;23959;49.046;8.468;2022-09-09T17:46:33;17.00;99.60
421;DHT22;23959;49.046;8.468;2022-09-09T17:49:03;16.80;99.60
421;DHT22;23959;49.046;8.468;2022-09-09T17:51:31;16.80;99.60
421;DHT22;23959;49.046;8.468;2022-09-09T17:54:01;16.80;99.60
421;DHT22;23959;49.046;8.468;2022-09-09T17:56:30;16.70;99.60
421;DHT22;23959;49.046;8.468;2022-09-09T17:59:00;16.70;99.60
421;DHT22;23959;49.046;8.468;2022-09-09T18:01:29;16.70;99.60
421;DHT22;23959;49.046;8.468;2022-09-09T18:03:59;16.70;99.60
421;DHT22;23959;49.046;8.468;2022-09-09T18:06:29;16.70;99.60
421;DHT22;23959;49.046;8.468;2022-09-09T18:08:59;16.70;99.60
421;DHT22;23959;49.046;8.468;2022-09-09T18:11:34;16.60;99.60
421;DHT22;23959;49.046;8.468;2022-09-09T18:14:04;16.50;99.60
421;DHT22;23959;49.046;8.468;2022-09-09T18:16:32;16.40;99.60
421;DHT22;23959;49.046;8.468;2022-09-09T18:19:03;16.30;99.60
421;DHT22;23959;49.046;8.468;2022-09-09T18:21:32;16.20;99.60
421;DHT22;23959;49.046;8.468;2022-09-09T18:24:05;16.20;99.60
421;DHT22;23959;49.046;8.468;2022-09-09T18:26:32;16.20;99.60
421;DHT22;23959;49.046;8.468;2022-09-09T18:29:01;16.20;99.60
421;DHT22;23959;49.046;8.468;2022-09-09T18:31:29;16.20;99.60
421;DHT22;23959;49.046;8.468;2022-09-09T18:33:58;16.10;99.60
421;DHT22;23959;49.046;8.468;2022-09-09T18:36:32;16.10;99.60
421;DHT22;23959;49.046;8.468;2022-09-09T18:39:01;16.10;99.60
421;DHT22;23959;49.046;8.468;2022-09-09T18:41:35;16.20;99.60
421;DHT22;23959;49.046;8.468;2022-09-09T18:44:23;16.20;99.60
421;DHT22;23959;49.046;8.468;2022-09-09T18:46:51;16.30;99.60
421;DHT22;23959;49.046;8.468;2022-09-09T18:49:21;16.20;99.60